Portada
METAR-TAF:

METAR-TAF

Aeroports :

Guwahati, Índia

latitud: 26-06-22N, longitud: 091-35-09E, altitud: 49 m

Observació

L'informe es va fer fa 38 minuts, a les 00:30 UTC
Vent calma
Temperatura 21°C
Humitat 100%
Pressió 1016 hPa
Visibilitat: 2500 m
Escasses núvols a una alçada de 1800 ft
boirina

METAR: VEGT 140030Z 00000KT 2500 BR FEW018 21/21 Q1016 BECMG 3000 BR

Hora: 06:38 (01:08 UTC)

Pronòstic

L'informe es va fer fa 2 hores i 8 minuts, a les 23:00 UTC
Pronòstic vàlid del 14 a les 00 UTC al 14 a les 09 UTC
Vent kt del Nord
Visibilitat: 1500 m
Escasses núvols a una alçada de 2000 ft
Núvols disperses a una alçada de 10000 ft
boirina
Evolucionant progressivament
l' 14 a les 01 UTC al 14 a les 03 UTC
Visibilitat: 3000 m
boirina
Evolucionant progressivament
l' 14 a les 06 UTC al 14 a les 08 UTC
Vent 6 kt del Nord
Visibilitat: 5000 m
calitja

TAF: VEGT 132300Z 1400/1409 00000KT 1500 BR FEW020 SCT100 BECMG 1401/1403 3000 BR BECMG 1406/1408 36006KT 5000 HZ

Observacions i pronòstics meteorològics de més de 4000 aeroports (METAR i TAF).

Les estacions disponibles són els punts grocs i vermells al mapa.

Posi el ratolí al punt desitjat per veure el nom de l'estació.

Feu clic per veure les observacions i els pronòstics meteorològics.

Per canviar el mapa: feu clic els botons verds amb una creu de color negre per apropar; al botó verd amb un guió per allunyar la imatge; o en les fletxes verdes per a mapes adjacents.


METAR-TAF: